createdAt,value
2022-09-20T00:00:23.543Z,7.40
2022-09-20T00:04:08.610Z,3.90
2022-09-20T00:07:36.847Z,4.10
2022-09-20T00:11:07.599Z,3.30
2022-09-20T00:14:36.668Z,2.70
2022-09-20T00:18:03.765Z,2.10
2022-09-20T00:21:32.561Z,2.50
2022-09-20T00:24:59.556Z,2.50
2022-09-20T00:28:34.140Z,2.20
2022-09-20T00:32:01.354Z,2.80
2022-09-20T00:35:29.772Z,3.40
2022-09-20T00:39:00.134Z,5.30
2022-09-20T00:42:33.301Z,3.90
2022-09-20T00:46:01.382Z,3.80
2022-09-20T00:49:31.663Z,3.40
2022-09-20T00:53:03.899Z,2.90
2022-09-20T00:56:34.509Z,3.50
2022-09-20T01:00:03.871Z,3.10
2022-09-20T01:03:34.579Z,2.30
2022-09-20T01:07:04.806Z,1.70
2022-09-20T01:10:33.510Z,1.90
2022-09-20T01:14:00.425Z,1.80
2022-09-20T01:17:31.171Z,1.50
2022-09-20T01:21:01.328Z,1.40
2022-09-20T01:24:39.279Z,1.60
2022-09-20T01:28:08.475Z,1.60
2022-09-20T01:31:43.793Z,1.40
2022-09-20T01:35:12.612Z,1.60
2022-09-20T01:38:49.809Z,1.30
2022-09-20T01:42:17.861Z,1.70
2022-09-20T01:45:50.389Z,2.20
2022-09-20T01:49:30.648Z,1.90
2022-09-20T01:53:26.993Z,1.90
2022-09-20T01:57:27.461Z,2.20
2022-09-20T02:01:21.493Z,2.00
2022-09-20T02:05:08.346Z,2.40
2022-09-20T02:09:02.215Z,2.20
2022-09-20T02:12:57.441Z,1.90
2022-09-20T02:16:48.197Z,1.80
2022-09-20T02:20:30.916Z,2.10
2022-09-20T02:24:04.787Z,1.80
2022-09-20T02:27:40.752Z,1.80
2022-09-20T02:31:17.913Z,1.50
2022-09-20T02:35:04.615Z,1.50
2022-09-20T02:38:46.429Z,1.80
2022-09-20T02:42:19.456Z,1.50
2022-09-20T02:45:54.148Z,1.30
2022-09-20T02:49:30.306Z,1.70
2022-09-20T02:53:08.852Z,1.40
2022-09-20T02:56:43.361Z,1.40
2022-09-20T03:00:16.049Z,1.60
2022-09-20T03:03:52.688Z,1.20
2022-09-20T03:07:27.898Z,1.00
2022-09-20T03:11:03.482Z,1.10
2022-09-20T03:14:38.117Z,1.00
2022-09-20T03:18:12.694Z,1.00
2022-09-20T03:21:52.434Z,0.80
2022-09-20T03:25:41.023Z,0.70
2022-09-20T03:29:20.370Z,0.80
2022-09-20T03:33:03.699Z,1.00
2022-09-20T03:37:04.702Z,0.70
2022-09-20T03:41:00.516Z,0.80
2022-09-20T03:44:59.215Z,0.80
2022-09-20T03:48:44.334Z,0.80
2022-09-20T03:52:23.194Z,0.70
2022-09-20T03:56:07.135Z,0.90
2022-09-20T03:59:54.442Z,0.80
2022-09-20T04:03:35.279Z,0.90
2022-09-20T04:07:14.866Z,1.30
2022-09-20T04:10:55.405Z,1.20
2022-09-20T04:14:31.502Z,1.30
2022-09-20T04:18:04.389Z,1.40
2022-09-20T04:21:38.415Z,1.10
2022-09-20T04:25:14.990Z,1.10
2022-09-20T04:28:46.626Z,1.30
2022-09-20T04:32:21.036Z,1.10
2022-09-20T04:36:14.756Z,1.10
2022-09-20T04:39:49.139Z,1.30
2022-09-20T04:43:53.846Z,1.00
2022-09-20T04:47:56.152Z,1.20
2022-09-20T04:51:55.451Z,1.60
2022-09-20T04:55:53.132Z,1.20
2022-09-20T04:59:36.331Z,1.20
2022-09-20T05:03:26.153Z,1.30
2022-09-20T05:07:18.560Z,1.40
2022-09-20T05:11:17.458Z,1.40
2022-09-20T05:15:10.192Z,1.30
2022-09-20T05:19:15.035Z,1.50
2022-09-20T05:23:13.611Z,1.20
2022-09-20T05:26:55.606Z,1.90
2022-09-20T05:30:34.945Z,1.60
2022-09-20T05:34:09.469Z,1.60
2022-09-20T05:37:51.722Z,2.40
2022-09-20T05:41:32.216Z,1.70
2022-09-20T05:45:14.120Z,1.70
2022-09-20T05:48:56.989Z,1.90
2022-09-20T05:52:53.138Z,1.80
2022-09-20T05:56:35.213Z,1.80
2022-09-20T06:00:07.976Z,1.30
2022-09-20T06:03:54.598Z,1.20
2022-09-20T06:07:33.205Z,1.30
2022-09-20T06:11:13.598Z,1.00
2022-09-20T06:14:55.786Z,1.20
2022-09-20T06:18:28.901Z,1.60
2022-09-20T06:22:03.959Z,1.20
2022-09-20T06:25:39.949Z,1.90
2022-09-20T06:29:12.977Z,1.30
2022-09-20T06:32:56.590Z,1.50
2022-09-20T06:36:47.306Z,1.60
2022-09-20T06:40:43.678Z,1.20
2022-09-20T06:44:11.306Z,1.40
2022-09-20T06:47:38.973Z,1.20
2022-09-20T06:51:06.900Z,1.50
2022-09-20T06:54:33.949Z,1.30
2022-09-20T06:58:01.709Z,0.80
2022-09-20T07:01:30.434Z,0.90
2022-09-20T07:04:59.525Z,1.10
2022-09-20T07:08:26.620Z,1.10
2022-09-20T07:11:53.510Z,1.50
2022-09-20T07:15:23.139Z,0.90
2022-09-20T07:18:52.553Z,0.70
2022-09-20T07:22:20.629Z,1.00
2022-09-20T07:25:47.444Z,1.00
2022-09-20T07:29:14.537Z,0.90
2022-09-20T07:32:42.245Z,1.30
2022-09-20T07:36:12.129Z,1.20
2022-09-20T07:39:39.691Z,1.10
2022-09-20T07:43:06.996Z,1.10
2022-09-20T07:46:36.541Z,1.10
2022-09-20T07:50:07.605Z,1.10
2022-09-20T07:53:35.849Z,1.40
2022-09-20T07:57:03.258Z,1.20
2022-09-20T08:00:30.156Z,1.00
2022-09-20T08:03:57.424Z,1.10
2022-09-20T08:07:25.021Z,0.90
2022-09-20T08:10:52.295Z,0.90
2022-09-20T08:14:21.272Z,1.10
2022-09-20T08:17:51.168Z,0.80
2022-09-20T08:21:17.918Z,0.70
2022-09-20T08:24:45.530Z,0.50
2022-09-20T08:28:12.238Z,0.50
2022-09-20T08:31:42.951Z,0.50
2022-09-20T08:35:12.324Z,0.50
2022-09-20T08:42:36.637Z,0.60
2022-09-20T08:46:14.061Z,0.50
2022-09-20T08:49:46.034Z,0.60
2022-09-20T08:53:21.305Z,0.50
2022-09-20T08:56:50.117Z,0.30
2022-09-20T09:00:22.232Z,0.40
2022-09-20T09:03:52.092Z,0.50
2022-09-20T09:07:24.180Z,0.30
2022-09-20T09:10:54.522Z,0.40
2022-09-20T09:14:46.039Z,0.40
2022-09-20T09:18:14.810Z,0.40
2022-09-20T09:21:46.628Z,0.50
2022-09-20T09:25:32.489Z,1.00
2022-09-20T09:29:19.932Z,0.60
2022-09-20T09:32:47.115Z,0.50
2022-09-20T09:36:18.015Z,0.30
2022-09-20T09:39:44.884Z,0.30
2022-09-20T09:43:27.351Z,0.10
2022-09-20T09:46:55.810Z,0.30
2022-09-20T09:50:28.253Z,0.40
2022-09-20T09:53:58.141Z,0.30
2022-09-20T09:57:43.624Z,0.40
2022-09-20T10:01:23.252Z,0.60
2022-09-20T10:04:59.862Z,0.50
2022-09-20T10:08:40.830Z,0.20
2022-09-20T10:12:22.126Z,0.60
2022-09-20T10:15:57.804Z,0.70
2022-09-20T10:19:38.941Z,0.30
2022-09-20T10:24:01.272Z,0.30
2022-09-20T10:27:20.697Z,0.10
2022-09-20T10:30:58.443Z,0.20
2022-09-20T10:35:04.735Z,0.20
2022-09-20T10:38:38.305Z,0.20
2022-09-20T10:42:42.118Z,0.20
2022-09-20T10:46:33.038Z,0.30
2022-09-20T10:50:17.200Z,0.30
2022-09-20T10:57:37.297Z,0.40
2022-09-20T11:01:18.023Z,0.30
2022-09-20T11:05:03.761Z,0.20
2022-09-20T11:08:37.156Z,0.10
2022-09-20T11:12:18.453Z,0.20
2022-09-20T11:15:52.932Z,0.20
2022-09-20T11:19:28.263Z,0.20
2022-09-20T11:23:03.518Z,0.10
2022-09-20T11:26:39.641Z,0.20
2022-09-20T11:30:16.531Z,0.20
2022-09-20T11:33:52.717Z,0.30
2022-09-20T11:37:24.493Z,0.30
2022-09-20T11:40:59.814Z,0.10
2022-09-20T11:44:28.585Z,0.20
2022-09-20T11:48:00.908Z,0.40
2022-09-20T11:52:01.464Z,0.30
2022-09-20T11:55:34.818Z,0.20
2022-09-20T12:02:35.918Z,0.30
2022-09-20T12:06:12.359Z,0.30
2022-09-20T12:09:48.006Z,0.20
2022-09-20T12:13:25.874Z,0.20
2022-09-20T12:16:53.068Z,0.40
2022-09-20T12:20:54.773Z,0.10
2022-09-20T12:24:27.109Z,0.20
2022-09-20T12:28:01.610Z,0.20
2022-09-20T12:31:51.356Z,0.20
2022-09-20T12:36:03.234Z,0.10
2022-09-20T12:39:31.882Z,0.20
2022-09-20T12:42:59.605Z,0.20
2022-09-20T12:46:31.942Z,0.20
2022-09-20T12:50:18.302Z,0.20
2022-09-20T12:53:45.555Z,0.30
2022-09-20T12:57:28.748Z,0.30
2022-09-20T13:01:40.151Z,0.40
2022-09-20T13:05:39.426Z,0.20
2022-09-20T13:09:10.267Z,0.30
2022-09-20T13:12:42.865Z,0.30
2022-09-20T13:16:20.488Z,0.50
2022-09-20T13:19:50.169Z,0.40
2022-09-20T13:23:25.088Z,0.40
2022-09-20T13:26:54.860Z,0.20
2022-09-20T13:30:24.239Z,0.20
2022-09-20T13:33:52.088Z,0.20
2022-09-20T13:37:21.935Z,0.20
2022-09-20T13:40:50.075Z,0.10
2022-09-20T13:44:20.798Z,0.10
2022-09-20T13:47:52.784Z,0.20
2022-09-20T13:51:25.658Z,0.10
2022-09-20T13:54:52.619Z,0.20
2022-09-20T13:58:25.705Z,0.40
2022-09-20T14:01:55.923Z,0.40
2022-09-20T14:05:26.885Z,0.10
2022-09-20T14:08:54.739Z,0.30
2022-09-20T14:12:23.494Z,0.50
2022-09-20T14:15:51.473Z,0.30
2022-09-20T14:19:21.642Z,0.30
2022-09-20T14:22:49.097Z,0.30
2022-09-20T14:26:30.908Z,0.30
2022-09-20T14:29:58.692Z,0.30
2022-09-20T14:33:26.005Z,0.30
2022-09-20T14:37:05.400Z,0.30
2022-09-20T14:40:34.706Z,0.40
2022-09-20T14:44:04.203Z,0.60
2022-09-20T14:47:40.229Z,0.30
2022-09-20T14:51:23.651Z,0.40
2022-09-20T14:55:02.363Z,0.30
2022-09-20T14:58:29.791Z,0.40
2022-09-20T15:02:05.849Z,0.50
2022-09-20T15:05:34.101Z,0.40
2022-09-20T15:09:02.625Z,0.20
2022-09-20T15:12:29.809Z,0.20
2022-09-20T15:15:57.317Z,0.30
2022-09-20T15:19:24.200Z,0.20
2022-09-20T15:22:51.163Z,0.20
2022-09-20T15:26:18.360Z,0.20
2022-09-20T15:29:45.127Z,0.20
2022-09-20T15:33:14.631Z,0.40
2022-09-20T15:36:42.128Z,0.50
2022-09-20T15:40:13.549Z,0.30
2022-09-20T15:43:43.477Z,0.60
2022-09-20T15:47:15.410Z,0.60
2022-09-20T15:50:44.388Z,0.30
2022-09-20T15:54:18.454Z,0.50
2022-09-20T15:57:45.078Z,0.80
2022-09-20T16:01:13.202Z,0.90
2022-09-20T16:04:39.933Z,0.60
2022-09-20T16:08:06.885Z,0.80
2022-09-20T16:11:33.586Z,1.00
2022-09-20T16:15:01.728Z,0.80
2022-09-20T16:18:46.250Z,0.60
2022-09-20T16:22:13.449Z,0.60
2022-09-20T16:25:40.689Z,0.50
2022-09-20T16:29:11.764Z,0.40
2022-09-20T16:32:39.735Z,0.40
2022-09-20T16:36:09.752Z,0.50
2022-09-20T16:39:41.069Z,0.50
2022-09-20T16:43:09.399Z,0.50
2022-09-20T16:46:37.755Z,0.70
2022-09-20T16:50:04.119Z,0.60
2022-09-20T16:53:33.278Z,0.90
2022-09-20T16:56:59.962Z,1.10
2022-09-20T17:00:26.914Z,1.30
2022-09-20T17:03:53.843Z,4.00
2022-09-20T17:07:26.926Z,2.30
2022-09-20T17:14:22.098Z,1.60
2022-09-20T17:17:50.233Z,1.50
2022-09-20T17:21:18.372Z,1.20
2022-09-20T17:24:46.940Z,1.70
2022-09-20T17:28:13.907Z,1.60
2022-09-20T17:31:42.241Z,1.20
2022-09-20T17:35:10.150Z,1.20
2022-09-20T17:38:39.464Z,1.20
2022-09-20T17:42:06.387Z,1.60
2022-09-20T17:45:34.399Z,1.80
2022-09-20T17:49:04.788Z,1.60
2022-09-20T17:52:31.690Z,1.60
2022-09-20T17:55:59.878Z,1.40
2022-09-20T17:59:29.768Z,2.30
2022-09-20T18:02:58.125Z,2.50
2022-09-20T18:06:29.776Z,3.60
2022-09-20T18:09:56.889Z,3.60
2022-09-20T18:13:27.486Z,3.40
2022-09-20T18:17:01.905Z,3.70
2022-09-20T18:20:31.795Z,3.70
2022-09-20T18:23:59.405Z,3.50
2022-09-20T18:27:28.326Z,3.10
2022-09-20T18:31:04.438Z,3.60
2022-09-20T18:34:34.529Z,3.90
2022-09-20T18:38:02.976Z,3.90
2022-09-20T18:41:37.631Z,4.10
2022-09-20T18:45:12.044Z,4.40
2022-09-20T18:48:43.114Z,4.10
2022-09-20T18:52:14.681Z,3.40
2022-09-20T18:56:07.365Z,3.40
2022-09-20T18:59:38.961Z,2.80
2022-09-20T19:03:17.853Z,2.40
2022-09-20T19:06:51.258Z,2.50
2022-09-20T19:10:28.160Z,3.20
2022-09-20T19:14:06.484Z,3.50
2022-09-20T19:17:50.774Z,3.80
2022-09-20T19:21:34.345Z,4.40
2022-09-20T19:25:26.733Z,3.90
2022-09-20T19:29:00.580Z,4.20
2022-09-20T19:32:35.117Z,4.40
2022-09-20T19:36:07.901Z,4.90
2022-09-20T19:39:51.637Z,3.90
2022-09-20T19:43:48.106Z,4.50
2022-09-20T19:47:30.823Z,4.70
2022-09-20T19:51:02.253Z,3.80
2022-09-20T19:54:32.034Z,4.90
2022-09-20T19:58:01.837Z,4.40
2022-09-20T20:01:31.453Z,4.80
2022-09-20T20:05:03.873Z,4.60
2022-09-20T20:08:39.676Z,4.60
2022-09-20T20:12:15.125Z,5.50
2022-09-20T20:15:53.521Z,6.00
2022-09-20T20:19:41.738Z,6.00
2022-09-20T20:23:38.564Z,5.80
2022-09-20T20:27:06.222Z,6.70
2022-09-20T20:30:33.458Z,6.30
2022-09-20T20:34:00.791Z,6.70
2022-09-20T20:37:28.647Z,6.30
2022-09-20T20:41:04.905Z,6.20
2022-09-20T20:44:35.209Z,6.60
2022-09-20T20:48:03.581Z,6.20
2022-09-20T20:51:33.284Z,6.20
2022-09-20T20:55:00.507Z,5.90
2022-09-20T20:58:33.775Z,4.70
2022-09-20T21:02:07.807Z,4.40
2022-09-20T21:05:48.971Z,5.00
2022-09-20T21:09:25.879Z,4.60
2022-09-20T21:12:56.082Z,4.60
2022-09-20T21:16:28.347Z,4.00
2022-09-20T21:20:02.762Z,5.00
2022-09-20T21:23:29.820Z,4.20
2022-09-20T21:26:57.307Z,3.80
2022-09-20T21:30:24.249Z,3.80
2022-09-20T21:33:52.453Z,3.70
2022-09-20T21:37:19.763Z,3.30
2022-09-20T21:40:46.772Z,3.40
2022-09-20T21:44:15.243Z,3.50
2022-09-20T21:47:43.812Z,3.50
2022-09-20T21:51:12.545Z,3.50
2022-09-20T21:54:42.463Z,3.20
2022-09-20T21:58:29.402Z,3.50
2022-09-20T22:02:07.625Z,3.30
2022-09-20T22:05:53.701Z,3.20
2022-09-20T22:09:44.231Z,2.70
2022-09-20T22:13:32.358Z,3.60
2022-09-20T22:17:22.099Z,2.70
2022-09-20T22:21:10.224Z,3.30
2022-09-20T22:24:49.327Z,2.70
2022-09-20T22:28:36.529Z,2.40
2022-09-20T22:32:17.742Z,2.60
2022-09-20T22:36:10.045Z,2.20
2022-09-20T22:40:04.636Z,2.70
2022-09-20T22:43:59.097Z,2.60
2022-09-20T22:47:54.933Z,2.80
2022-09-20T22:51:49.514Z,2.70
2022-09-20T22:55:33.013Z,3.10
2022-09-20T22:59:27.544Z,2.70
2022-09-20T23:03:17.245Z,2.80
2022-09-20T23:07:13.856Z,2.20
2022-09-20T23:11:13.711Z,2.10
2022-09-20T23:15:06.787Z,2.20
2022-09-20T23:18:55.889Z,2.30
2022-09-20T23:22:50.087Z,2.50
2022-09-20T23:26:41.005Z,2.50
2022-09-20T23:30:32.534Z,2.40
2022-09-20T23:34:21.572Z,2.30
2022-09-20T23:38:07.370Z,2.20
2022-09-20T23:42:02.430Z,2.70
2022-09-20T23:46:00.250Z,2.50
2022-09-20T23:49:50.370Z,2.20
2022-09-20T23:53:42.319Z,2.30
2022-09-20T23:57:30.075Z,2.30
